createdAt,value
2023-05-22T00:04:05.569Z,0
2023-05-22T00:14:44.752Z,0
2023-05-22T00:20:04.023Z,0
2023-05-22T00:30:41.627Z,0
2023-05-22T00:46:38.462Z,0
2023-05-22T00:57:17.167Z,0
2023-05-22T01:02:35.930Z,0
2023-05-22T01:13:14.106Z,0
2023-05-22T01:29:11.006Z,0
2023-05-22T01:39:49.755Z,0
2023-05-22T01:45:08.767Z,0
2023-05-22T01:55:46.796Z,0
2023-05-22T02:01:06.138Z,0
2023-05-22T02:11:45.385Z,0
2023-05-22T02:22:23.926Z,0
2023-05-22T02:27:43.389Z,0
2023-05-22T02:38:20.974Z,0
2023-05-22T02:43:39.815Z,0
2023-05-22T02:54:18.726Z,0
2023-05-22T03:04:56.799Z,0
2023-05-22T03:10:15.724Z,0
2023-05-22T03:20:53.634Z,0.0102
2023-05-22T03:26:12.731Z,0.0191
2023-05-22T03:36:50.626Z,0.0363
2023-05-22T03:47:28.588Z,0.0509
2023-05-22T03:52:47.951Z,0.0592
2023-05-22T04:03:27.526Z,0.0795
2023-05-22T04:08:46.662Z,0.0885
2023-05-22T04:19:25.726Z,0.1129
2023-05-22T04:24:45.374Z,0.1199
2023-05-22T04:35:23.232Z,0.1386
2023-05-22T04:46:01.321Z,0.1613
2023-05-22T04:51:20.282Z,0.1913
2023-05-22T05:01:58.857Z,0.2082
2023-05-22T05:07:18.083Z,0.2692
2023-05-22T05:17:56.040Z,0.3709
2023-05-22T05:28:33.902Z,0.4139
2023-05-22T05:33:52.678Z,0.4129
2023-05-22T05:44:30.900Z,0.5303
2023-05-22T05:55:09.262Z,0.4615
2023-05-22T06:05:48.346Z,0.3206
2023-05-22T06:11:07.456Z,0.2912
2023-05-22T06:21:45.993Z,0.2838
2023-05-22T06:27:05.440Z,0.2856
2023-05-22T06:37:44.646Z,0.2822
2023-05-22T06:43:03.462Z,0.2799
2023-05-22T06:53:41.931Z,0.2875
2023-05-22T07:04:20.006Z,0.2955
2023-05-22T07:09:38.929Z,0.2954
2023-05-22T07:20:16.257Z,0.6782
2023-05-22T07:25:35.165Z,0.6549
2023-05-22T07:36:13.608Z,0.6097
2023-05-22T07:46:52.322Z,0.8646
2023-05-22T07:52:11.886Z,0.9475
2023-05-22T08:02:49.936Z,0.6789
2023-05-22T08:18:48.969Z,0.9181
2023-05-22T08:34:45.492Z,0.9696
2023-05-22T08:45:23.407Z,0.8859
2023-05-22T08:50:42.609Z,1.2368
2023-05-22T09:01:20.653Z,1.1299
2023-05-22T09:17:18.897Z,0.8699
2023-05-22T09:27:57.517Z,1.4899
2023-05-22T09:33:17.073Z,1.17
2023-05-22T09:43:55.635Z,1.2489
2023-05-22T09:49:16.334Z,1.4764
2023-05-22T09:59:50.886Z,1.2977
2023-05-22T10:15:49.030Z,1.4443
2023-05-22T10:26:26.625Z,1.3341
2023-05-22T10:31:46.075Z,1.4748
2023-05-22T10:42:25.033Z,1.5621
2023-05-22T10:47:44.456Z,1.1584
2023-05-22T10:58:22.773Z,1.7861
2023-05-22T11:14:19.870Z,1.339
2023-05-22T11:24:58.292Z,1.5954
2023-05-22T11:30:17.063Z,1.3959
2023-05-22T11:40:55.046Z,1.2904
2023-05-22T11:56:53.282Z,0.9866
2023-05-22T12:07:32.034Z,1.1878
2023-05-22T12:12:50.857Z,1.5379
2023-05-22T12:23:37.072Z,1.126
2023-05-22T12:39:38.443Z,1.3981
2023-05-22T12:44:46.022Z,1.1406
2023-05-22T12:50:05.455Z,1.457
2023-05-22T13:00:42.648Z,1.8475
2023-05-22T13:06:01.696Z,1.1461
2023-05-22T13:16:39.776Z,1.5291
2023-05-22T13:32:38.459Z,1.5087
2023-05-22T13:43:15.790Z,1.3052
2023-05-22T13:48:34.736Z,1.0864
2023-05-22T13:59:12.985Z,1.3586
2023-05-22T14:04:32.727Z,1.4601
2023-05-22T14:11:06.876Z,1.3529
2023-05-22T14:15:11.721Z,1.3259
2023-05-22T14:31:09.351Z,1.4895
2023-05-22T14:41:47.534Z,1.0463
2023-05-22T14:47:06.839Z,0.4564
2023-05-22T14:57:53.283Z,1.0547
2023-05-22T15:03:03.561Z,1.0349
2023-05-22T15:13:42.498Z,0.833
2023-05-22T15:24:20.761Z,0.8001
2023-05-22T15:29:39.590Z,0.7748
2023-05-22T15:40:18.226Z,0.6541
2023-05-22T15:45:37.845Z,0.7084
2023-05-22T15:56:15.832Z,0.6591
2023-05-22T16:12:14.056Z,0.5367
2023-05-22T16:22:52.803Z,0.5579
2023-05-22T16:28:11.557Z,0.2952
2023-05-22T16:38:49.268Z,0.2129
2023-05-22T16:44:08.620Z,0.2047
2023-05-22T16:44:33.563Z,0.2081
2023-05-22T16:55:11.934Z,0.186
2023-05-22T17:00:31.702Z,0.1646
2023-05-22T17:11:10.493Z,0.135
2023-05-22T17:16:29.902Z,0.1336
2023-05-22T17:27:07.805Z,0.135
2023-05-22T17:43:05.744Z,0.0956
2023-05-22T17:53:43.960Z,0.0742
2023-05-22T17:59:03.414Z,0.0695
2023-05-22T18:09:41.778Z,0.065
2023-05-22T18:25:39.829Z,0.0486
2023-05-22T18:36:18.358Z,0.0463
2023-05-22T18:41:46.195Z,0.0437
2023-05-22T18:52:15.492Z,0.0357
2023-05-22T18:57:34.955Z,0.0322
2023-05-22T19:08:13.550Z,0.0113
2023-05-22T19:18:51.719Z,0.0012
2023-05-22T19:29:29.337Z,0
2023-05-22T19:34:48.011Z,0
2023-05-22T19:45:26.210Z,0
2023-05-22T19:50:45.315Z,0
2023-05-22T20:01:23.556Z,0
2023-05-22T20:12:01.671Z,0
2023-05-22T20:17:21.060Z,0
2023-05-22T20:27:59.263Z,0
2023-05-22T20:33:18.873Z,0
2023-05-22T20:43:56.965Z,0
2023-05-22T20:59:55.035Z,0
2023-05-22T21:10:33.472Z,0
2023-05-22T21:15:52.271Z,0
2023-05-22T21:26:30.136Z,0
2023-05-22T21:42:34.692Z,0
2023-05-22T21:53:06.134Z,0
2023-05-22T21:58:25.383Z,0
2023-05-22T22:09:03.705Z,0
2023-05-22T22:14:22.505Z,0
2023-05-22T22:25:00.342Z,0
2023-05-22T22:35:38.951Z,0
2023-05-22T22:40:58.180Z,0
2023-05-22T22:51:36.405Z,0
2023-05-22T22:56:55.164Z,0
2023-05-22T23:07:33.293Z,0
2023-05-22T23:18:12.150Z,0
2023-05-22T23:23:30.863Z,0
2023-05-22T23:34:09.193Z,0
2023-05-22T23:39:28.295Z,0
2023-05-22T23:50:06.335Z,0
